WEATHER DATA

YESTERDAY
Time Temp. Dewp. Hum. Wind dir Wind speed Wind gust Bar. 1h Prec. 24h Prec.
00:09 5.1 4.2 94 143 0.6 2.2 997.7 0.0000 0.0000
00:19 5.1 4.2 94 108 0.6 1.4 997.6 0.0000 0.0000
00:34 5 4.1 94 135 0.6 1.1 997.4 0.0000 0.0000
00:55 5 4.1 94 135 0.6 1.9 997.2 0.0000 0.0000
01:14 4.9 4 94 150 0.6 1.4 997.1 0.0000 0.0000
01:25 4.9 4 94 135 0.6 1.4 997.1 0.0000 0.0000
01:35 4.8 3.9 94 131 0.6 1.7 997.1 0.0000 0.0000
01:55 4.8 3.9 94 135 0.3 0.8 996.8 0.0000 0.0000
02:05 4.8 3.9 94 135 0.3 0.8 996.8 0.0000 0.0000
02:15 4.8 3.9 94 143 0.6 1.7 996.7 0.0000 0.0000
02:31 4.8 3.9 94 90 0.3 1.4 996.4 0.0000 0.0000
02:41 4.8 3.9 94 59 0.3 1.1 996.3 0.0000 0.0000
02:50 4.8 3.9 94 90 0.3 1.1 996.2 0.0000 0.0000
03:06 4.8 3.9 94 90 0.3 1.4 996.1 0.0000 0.0000
03:16 4.8 3.9 94 90 0.6 1.4 995.9 0.0000 0.0000
03:31 4.8 3.9 94 90 0.6 2.8 995.7 0.0000 0.0000
03:41 4.9 4 94 45 0.6 1.9 995.6 0.0000 0.0000
03:56 5 4 93 62 0.6 2.2 995.4 0.0000 0.0000
04:06 5.1 4.1 93 50 0.6 1.7 995.3 0.0000 0.0000
04:22 5.2 4.2 93 62 0.6 1.9 995.3 0.0000 0.0000
04:31 5.3 4.1 92 45 0.6 2.8 995.1 0.0000 0.0000
04:41 5.4 4.2 92 51 0.3 1.1 995 0.0000 0.0000
04:51 5.4 4.1 91 45 0.6 1.9 995 0.0000 0.0000
05:02 5.5 4.1 91 40 0.3 1.9 994.9 0.0000 0.0000
05:12 5.5 4.1 91 60 0.3 1.1 995 0.0000 0.0000
05:21 5.5 4.1 91 45 0.3 1.7 995 0.0000 0.0000
05:32 5.6 4.1 90 45 0.6 1.7 995 0.0000 0.0000
05:47 5.8 4.1 89 66 0.6 1.9 995.1 0.0000 0.0000
05:57 5.9 4.2 89 90 0.6 1.9 995.2 0.0000 0.0000
06:08 5.9 4.1 88 111 0.6 2.5 995.3 0.0000 0.0000
06:17 5.9 4.1 88 126 0.6 1.7 995.2 0.0000 0.0000
06:28 6 4.2 88 135 0.6 2.2 995.3 0.0000 0.0000
06:38 6 4.2 88 125 0.6 1.9 995.4 0.0000 0.0000
06:47 6.1 4.3 88 144 0.8 1.9 995.6 0.0000 0.0000
07:03 6.1 4.1 87 141 0.6 2.5 995.7 0.1010 0.1000
07:13 6.1 4.1 87 171 1.1 3.3 995.9 0.1010 0.1000
07:28 6.2 4.2 87 135 1.1 2.8 995.9 0.1010 0.1000
07:38 6.2 4 86 171 1.1 2.8 996.1 0.1010 0.1000
07:48 6.2 4 86 151 1.4 3.3 996.3 0.0000 0.1000
07:58 6.2 4 86 141 1.1 3.6 996.5 0.0000 0.1000
08:08 6.1 4.1 87 160 1.1 2.8 996.8 0.1010 0.2000
08:25 6 4.2 88 166 1.1 2.5 997.1 0.3030 0.4000
08:34 5.9 4.1 88 150 1.1 2.5 997.1 0.4040 0.5000
08:44 5.8 4.1 89 146 0.8 2.5 997.3 0.4040 0.5000
08:55 5.7 4 89 147 1.1 2.8 997.6 0.4040 0.5000
09:05 5.7 4.2 90 146 1.1 2.5 997.7 0.5050 0.6000
09:15 5.6 4.1 90 140 0.8 3.3 997.7 0.2020 0.6000
09:35 5.6 4.1 90 147 1.1 2.8 998 0.1010 0.6000
09:54 5.6 4.2 91 151 1.1 2.8 998.3 0.2020 0.7000
10:05 5.5 4.1 91 173 1.4 3.1 998.5 0.3030 0.9000
10:25 5.5 4.1 91 194 1.1 3.3 998.6 0.4040 1.0000
10:36 5.5 4.1 91 175 1.1 3.1 998.8 0.4040 1.0000
10:45 5.6 4.2 91 162 1.4 3.3 999 0.3030 1.0000
11:01 5.7 4.2 90 145 0.8 2.8 999.2 0.1010 1.0000
11:11 5.9 4.5 91 155 1.1 2.8 999.3 0.0000 1.0000
11:21 6.5 5.1 91 206 1.4 3.6 999.3 0.0000 1.0000
11:31 7.1 5.4 89 215 1.9 3.6 999.4 0.0000 1.0000
11:41 7.3 5.3 87 202 1.4 3.9 999.5 0.0000 1.0000
11:52 7.4 5.2 86 211 1.1 2.5 999.6 0.0000 1.0000
12:01 7.5 5.1 85 181 1.1 3.1 999.7 0.0000 1.0000
12:11 7.6 5.2 85 192 1.4 3.3 999.8 0.0000 1.0000
12:21 7.5 5 84 187 1.7 5 999.8 0.0000 1.0000
12:32 7.5 5.1 85 170 1.1 3.6 999.8 0.0000 1.0000
12:41 7.3 4.9 85 172 0.8 3.1 999.8 0.0000 1.0000
12:51 7.2 5 86 166 0.8 2.2 999.9 0.0000 1.0000
13:02 7 4.8 86 172 0.8 1.9 1000.1 0.0000 1.0000
13:07 6.9 4.9 87 152 0.6 1.7 1000 0.1010 1.1000
13:19 6.9 4.9 87 161 0.8 2.2 999.8 0.1010 1.1000
13:32 7 5.2 88 174 0.6 1.1 999.9 0.1010 1.1000
13:42 7.1 5.1 87 141 0.6 1.4 999.9 0.1010 1.1000
13:52 7.3 5.3 87 203 0.8 2.2 999.7 0.1010 1.1000
14:02 7.8 5.6 86 229 2.2 3.3 999.7 0.1010 1.1000
14:12 8.2 5.7 84 241 1.9 3.6 999.7 0.0000 1.1000
14:22 8.1 5.4 83 204 1.1 2.5 999.9 0.0000 1.1000
14:33 7.9 5.2 83 153 0.8 1.9 1000.3 0.0000 1.1000
14:42 7.9 5.2 83 154 0.8 1.9 1000.3 0.0000 1.1000
14:52 7.7 5 83 162 0.8 2.2 1000.3 0.0000 1.1000
15:03 7.7 5 83 153 0.8 1.9 1000.5 0.0000 1.1000
15:13 7.6 4.9 83 156 0.8 2.5 1000.5 0.0000 1.1000
15:22 7.5 4.8 83 144 0.8 2.8 1000.5 0.0000 1.1000
15:33 7.5 4.8 83 150 0.6 2.2 1000.8 0.0000 1.1000
15:43 7.5 4.6 82 145 0.6 1.7 1000.9 0.0000 1.1000
15:53 7.4 4.5 82 153 0.8 2.2 1001.1 0.0000 1.1000
16:03 7.3 4.4 82 154 0.6 1.7 1001.3 0.0000 1.1000
16:13 7.1 4.4 83 142 0.6 1.4 1001.1 0.0000 1.1000
16:24 6.9 4.2 83 135 0.3 1.1 1001.3 0.0000 1.1000
16:34 6.7 4.2 84 147 0.6 1.1 1001.2 0.0000 1.1000
16:48 6.5 4.2 85 161 0.6 1.4 1001.4 0.0000 1.1000
16:59 6.4 4.1 85 168 0.3 1.1 1001.5 0.0000 1.1000
17:14 6 3.7 85 15 0.3 0.6 1001.6 0.0000 1.1000
17:24 5.8 3.6 86 29 0.3 0.6 1001.8 0.0000 1.1000
17:39 5.6 3.4 86 24 0.3 0.8 1002.1 0.0000 1.1000
17:49 5.5 3.5 87 180 0.3 0.8 1002.3 0.0000 1.1000
17:59 5.4 3.4 87 90 0.3 0.6 1002.5 0.0000 1.1000
18:10 5.3 3.5 88 23 0.3 0.8 1002.3 0.0000 1.1000
18:19 5.3 3.5 88 36 0.3 0.8 1002 0.0000 1.1000
18:29 5.1 3.3 88 45 0.3 0.6 1001.8 0.0000 1.1000
18:45 5 3.3 89 0 0.6 1002 0.0000 1.1000
19:05 4.9 3.4 90 0 0.6 1002.4 0.0000 1.1000
19:15 4.9 3.4 90 0 0.3 1002.9 0.0000 1.1000
19:25 4.9 3.4 90 0 0.3 1002.7 0.0000 1.1000
19:40 4.9 3.4 90 0 0.3 1002.8 0.0000 1.1000
19:50 4.9 3.4 90 0 0.3 1003 0.0000 1.1000
20:00 4.8 3.5 91 45 0.3 0.8 1002.9 0.0000 1.1000
20:10 4.8 3.5 91 45 0.3 1.1 1003.1 0.0000 1.1000
20:20 4.9 3.6 91 33 0.3 1.4 1003.1 0.0000 1.1000
20:31 4.9 3.6 91 45 0.3 1.1 1003.1 0.0000 1.1000
20:41 5 3.7 91 40 0.3 0.8 1003.1 0.0000 1.1000
20:50 5 3.7 91 41 0.3 0.8 1002.7 0.0000 1.1000
21:00 5 3.7 91 40 0.3 0.8 1002.5 0.0000 1.1000
21:11 4.9 3.6 91 39 0.3 0.8 1002.6 0.0000 1.1000
21:21 4.9 3.6 91 0 0.6 1002.8 0.0000 1.1000
21:31 4.8 3.5 91 0 0.6 1002.8 0.0000 1.1000
21:41 4.8 3.6 92 0 0.3 1002.8 0.0000 1.1000
21:51 4.8 3.6 92 0 0.3 1002.7 0.0000 1.1000
22:01 4.8 3.6 92 0 0.3 1002.7 0.0000 1.1000
22:11 4.8 3.6 92 0 0.3 1003.1 0.0000 1.1000
22:22 4.8 3.6 92 0 0.3 1003.1 0.0000 1.1000
22:31 4.8 3.6 92 0 0.6 1003.2 0.0000 1.1000
22:41 4.8 3.6 92 0 0.6 1003.1 0.0000 1.1000
22:52 4.9 3.9 93 0 0.3 1003.1 0.0000 1.1000
23:02 4.9 3.9 93 0 0.3 1003 0.0000 1.1000
23:12 4.9 3.9 93 0 0.3 1003 0.0000 1.1000
23:22 4.9 3.9 93 45 0.3 0.6 1003.1 0.0000 1.1000
23:32 4.9 3.9 93 45 0.3 0.8 1003.2 0.0000 1.1000
23:42 4.9 3.9 93 45 0.3 0.6 1003.1 0.0000 1.1000
23:52 5 4 93 0 0.6 1003 0.0000 1.1000

DAY STATISTIC

2019-11-14
TEMPERATURE
AVERAGE
5.8
HIGH
8.2
14:12
LOW
4.8
01:35
PRESSURE
AVERAGE
999.4
HIGH
1003.2
22:31
LOW
994.9
05:02
DEWPOINT
AVERAGE
4.2
HIGH
5.7
14:12
LOW
3.3
18:29
HUMIDITY
AVERAGE
89
HIGH
94
00:09
LOW
82
15:43
WIND SPEED
AVERAGE
0.6
HIGH
2.2
14:02
WIND GUST
AVERAGE
1.8
HIGH
5.0
12:21
WIND DIRECTION
PREVAILING
SE
31.5%
N
0.8
NE
22.8
E
7.1
SE
31.5
S
18.9
SW
3.9
W
0.0
NW
0.0
PRECIPITATION
RAIN HOUR
0.5
RAIN DAY
1.1
TEMPERATURE (°C)
LOW
4.8
HIGH
8.2
AVERAGE
5.8
PRESSURE (hpa)
LOW
994.9
HIGH
1003.2
AVERAGE
999.4
DEVICE